KTDZ

Toledo Executive Airport

Toledo, Ohio, USA
METAR KTDZ 200853Z AUTO 06003KT 5SM -RA FEW026 OVC045 21/17 A2989 RMK AO2 LTG DSNT N RAB45 SLP117 P0001 60001 T02110172 55004
Observed Flight Rules
Jun-20 @ 08:53 UTC (17 minutes ago) Marginal Visual Flight Rules
Wind Visibility Clouds Conditions
60° at 3 knots 5 miles
  • Few at 2,600' AGL
  • Overcast at 4,500' AGL
  • Light Rain
Temperatures Readings Precipitation
Current 21°C / 70°F
Dewpoint 17°C / 63°F
Humidity 78%
Altimeter 29.89" Hg
Pressure 1011.7 hPa
Elevation 189
Current Rain 0.01
METAR KTDZ 200853Z AUTO 06003KT 5SM -RA FEW026 OVC045 21/17 A2989 RMK AO2 LTG DSNT N RAB45 SLP117 P0001 60001 T02110172 55004
Observed Flight Rules
Jun-20 @ 08:53 UTC
(17 minutes ago)
MVFR
Wind Visibility
60° at 3 knots 5 miles
Clouds
  • Few at 2,600' AGL
  • Overcast at 4,500' AGL
Conditions
  • Light Rain
Temperature Dewpoint
21°C / 70°F 17°C / 63°F
Humidity Altimeter Pressure
78% 29.89" Hg 1011.7 hPa
Current Rain
0.01